Wind From: 11-12-2017 04:25 Until: 16:00 warning for: Wind Level: Orange info button

Power and phone distribution networks may be disrupted for relatively long periods., Roofs and chimneys can be damaged. , Tree branches may break. , Vehicles can be deported. , Traffic may be disrupted, particularly on secondary roads in forest areas. Limit your trips. , Limit your speed in highway driving, especially if you drive a vehicle or hitch sensitive to wind. , Do not go for walks in forests or along the coast., In town, be vigilant against possible falling objects., Do not work on roofs and do not touch any electrical line fallen on the ground., Store or secure sensitive objects to wind or likely to be damaged., Always install power generators outside buildings. 


Meteo18 Weather Cam more information Meteo18 Weather Cam


Thunder radar more information blitzortung!


Rain radar more information rain snow radar


Visit our other weather sites:

Template documentation
and downloads

And another site



Weather Underground History page Text

Daily Summary for October 7, 2017 Units:  English    Metric   Both
« Previous Day
Next Day »
Daily Weekly Monthly Yearly Custom
  High: Low: Average:
Temperature: 60.3 °F 36 °F 49.6 °F
Dew Point: 47.8 °F 34.9 °F 43 °F
Humidity: 97 % 57 % 80 %
Wind Speed: 10 mph 0 mph 2.1 mph
Wind Gust: 13 mph - -
Wind:- - WSW
Pressure: 30.4 in 30.2 in -
Precipitation: 0.03 in    
Historical Graphs
 
 
Tabular Data for October 7, 2017
Time Temperature Dew Point Pressure Wind Wind Speed Wind Gust Humidity Rainfall Rate (Hourly)
00:02 45 °F 42.3 °F 30.4 in WNW 1 mph 1 mph 90 % 0 in
00:07 44.8 °F 42.3 °F 30.4 in WNW 1 mph 2 mph 91 % 0 in
00:12 45 °F 42.8 °F 30.4 in WNW 1 mph 2 mph 92 % 0 in
00:17 44.8 °F 42.6 °F 30.4 in WNW 1 mph 2 mph 92 % 0 in
00:22 44.8 °F 42.6 °F 30.4 in Calm   2 mph 92 % 0 in
00:27 44.6 °F 42.4 °F 30.4 in WNW 1 mph 1 mph 92 % 0 in
00:32 44.4 °F 42.3 °F 30.4 in Calm   1 mph 92 % 0 in
00:42 45.1 °F 43.2 °F 30.4 in Calm   1 mph 93 % 0 in
00:47 45.3 °F 42.8 °F 30.4 in Calm   1 mph 91 % 0 in
00:52 44.8 °F 42.1 °F 30.4 in Calm   1 mph 90 % 0 in
00:57 44.8 °F 42.6 °F 30.4 in Calm   1 mph 92 % 0 in
01:02 45.3 °F 43.2 °F 30.4 in Calm   1 mph 92 % 0 in
01:07 45.5 °F 43 °F 30.4 in Calm   1 mph 91 % 0 in
01:12 45.7 °F 43 °F 30.4 in Calm   1 mph 90 % 0 in
01:17 45.3 °F 42.6 °F 30.4 in Calm   1 mph 90 % 0 in
01:22 45 °F 42.3 °F 30.4 in Calm     90 % 0 in
01:27 44.6 °F 41.9 °F 30.4 in Calm     90 % 0 in
01:32 44.2 °F 41.7 °F 30.4 in Calm     91 % 0 in
01:37 44.1 °F 41.5 °F 30.4 in Calm     91 % 0 in
01:42 44.1 °F 41.9 °F 30.4 in NW 1 mph   92 % 0 in
01:47 43.9 °F 41.9 °F 30.4 in WNW 1 mph 1 mph 93 % 0 in
01:52 43.9 °F 41.9 °F 30.4 in Calm   1 mph 93 % 0 in
01:57 43.3 °F 41.5 °F 30.4 in Calm   1 mph 93 % 0 in
02:02 43.3 °F 41.5 °F 30.4 in WNW 1 mph 1 mph 93 % 0 in
02:12 43.2 °F 41.5 °F 30.4 in Calm   1 mph 94 % 0 in
02:17 43.2 °F 41.5 °F 30.4 in Calm   1 mph 94 % 0 in
02:22 43.2 °F 41.5 °F 30.4 in Calm   1 mph 94 % 0 in
02:27 43.2 °F 41.5 °F 30.4 in Calm   1 mph 94 % 0 in
02:32 43.2 °F 41.5 °F 30.4 in Calm   1 mph 94 % 0 in
02:37 43 °F 41.4 °F 30.4 in Calm   1 mph 94 % 0 in
02:42 43.2 °F 41.5 °F 30.4 in Calm   1 mph 94 % 0 in
02:47 43.2 °F 41.5 °F 30.4 in Calm   1 mph 94 % 0 in
02:52 43.2 °F 41.5 °F 30.4 in Calm   1 mph 94 % 0 in
02:57 43.2 °F 41.5 °F 30.4 in Calm     94 % 0 in
03:02 42.8 °F 41.2 °F 30.4 in Calm     94 % 0 in
03:07 42.6 °F 41 °F 30.4 in Calm     94 % 0 in
03:12 42.6 °F 41 °F 30.4 in Calm     94 % 0 in
03:17 42.6 °F 41 °F 30.4 in Calm     94 % 0 in
03:22 42.6 °F 41.4 °F 30.4 in Calm     95 % 0 in
03:27 42.4 °F 41.2 °F 30.4 in Calm     95 % 0 in
03:32 42.4 °F 41.2 °F 30.4 in Calm     95 % 0 in
03:37 42.1 °F 40.5 °F 30.4 in Calm     94 % 0 in
03:42 41.5 °F 39.9 °F 30.4 in Calm     94 % 0 in
03:47 41.4 °F 39.7 °F 30.4 in Calm     94 % 0 in
03:52 41.4 °F 40.1 °F 30.4 in Calm     95 % 0 in
03:57 41.2 °F 39.6 °F 30.4 in Calm     94 % 0 in
04:02 41.2 °F 39.9 °F 30.4 in Calm     95 % 0 in
04:07 41 °F 39.7 °F 30.4 in Calm     95 % 0 in
04:12 40.6 °F 39.4 °F 30.4 in Calm     95 % 0 in
04:17 40.6 °F 39.4 °F 30.4 in Calm     95 % 0 in
04:22 40.6 °F 39.4 °F 30.4 in Calm     95 % 0 in
04:27 40.5 °F 39.2 °F 30.4 in Calm     95 % 0 in
04:32 40.5 °F 39.2 °F 30.4 in Calm     95 % 0 in
04:37 40.3 °F 39 °F 30.4 in Calm     95 % 0 in
04:47 39.7 °F 38.5 °F 30.4 in Calm     95 % 0 in
04:52 39.7 °F 38.5 °F 30.4 in Calm     95 % 0 in
04:57 39.9 °F 38.8 °F 30.4 in Calm     96 % 0 in
05:02 40.5 °F 39.4 °F 30.4 in Calm   1 mph 96 % 0 in
05:07 40.5 °F 39.4 °F 30.4 in Calm   1 mph 96 % 0 in
05:17 39.9 °F 38.7 °F 30.4 in Calm   1 mph 95 % 0 in
05:22 39.9 °F 38.8 °F 30.4 in Calm     96 % 0 in
05:27 39.7 °F 38.7 °F 30.4 in Calm     96 % 0 in
05:32 39.7 °F 38.7 °F 30.4 in Calm     96 % 0 in
05:42 39.6 °F 38.5 °F 30.4 in Calm     96 % 0 in
05:47 39.6 °F 38.5 °F 30.4 in Calm     96 % 0 in
06:02 38.8 °F 37.8 °F 30.4 in Calm   1 mph 96 % 0 in
06:07 39 °F 37.9 °F 30.4 in Calm   1 mph 96 % 0 in
06:17 38.8 °F 37.8 °F 30.4 in Calm     96 % 0 in
06:22 38.7 °F 37.6 °F 30.4 in SSE 1 mph   96 % 0 in
06:32 37 °F 35.4 °F 30.4 in SE 1 mph 2 mph 94 % 0 in
06:37 36.5 °F 35.2 °F 30.4 in SSW 1 mph 2 mph 95 % 0 in
06:42 36.3 °F 35.1 °F 30.4 in Calm   2 mph 95 % 0 in
06:47 36.1 °F 34.9 °F 30.4 in Calm   2 mph 95 % 0 in
06:52 36.3 °F 35.2 °F 30.4 in Calm   2 mph 96 % 0 in
06:57 36.3 °F 35.2 °F 30.4 in Calm     96 % 0 in
07:02 36.5 °F 35.4 °F 30.4 in Calm     96 % 0 in
07:07 36.5 °F 35.4 °F 30.4 in Calm     96 % 0 in
07:12 36.5 °F 35.4 °F 30.4 in Calm     96 % 0 in
07:17 36.7 °F 35.6 °F 30.4 in Calm     96 % 0 in
07:22 36.9 °F 35.8 °F 30.4 in Calm     96 % 0 in
07:32 36.7 °F 35.6 °F 30.4 in Calm     96 % 0 in
07:37 36.9 °F 35.8 °F 30.4 in Calm     96 % 0 in
07:42 36.7 °F 35.6 °F 30.4 in Calm     96 % 0 in
07:47 36.3 °F 35.2 °F 30.4 in Calm     96 % 0 in
07:52 36.1 °F 35.1 °F 30.4 in Calm     96 % 0 in
07:57 36 °F 34.9 °F 30.4 in Calm     96 % 0 in
08:02 36.1 °F 35.1 °F 30.4 in Calm     96 % 0 in
08:07 36.1 °F 35.1 °F 30.4 in Calm     96 % 0 in
08:12 36.3 °F 35.2 °F 30.4 in Calm     96 % 0 in
08:17 36.5 °F 35.4 °F 30.4 in Calm     96 % 0 in
08:22 36.7 °F 35.6 °F 30.4 in Calm     96 % 0.01 in
08:27 36.9 °F 35.8 °F 30.4 in Calm     96 % 0.01 in
08:32 37.6 °F 36.5 °F 30.4 in Calm     96 % 0.01 in
08:42 37.9 °F 36.9 °F 30.4 in Calm     96 % 0.01 in
08:47 38.7 °F 37.9 °F 30.4 in Calm     97 % 0.01 in
08:52 39.4 °F 38.7 °F 30.4 in Calm     97 % 0.01 in
08:57 39.9 °F 39.2 °F 30.4 in Calm     97 % 0.01 in
09:02 40.3 °F 39.6 °F 30.4 in Calm     97 % 0.01 in
09:12 41.2 °F 40.5 °F 30.4 in Calm   1 mph 97 % 0.01 in
09:17 42.3 °F 41.5 °F 30.4 in Calm   1 mph 97 % 0 in
09:22 42.4 °F 41.4 °F 30.4 in Calm   1 mph 96 % 0 in
09:27 42.3 °F 41 °F 30.4 in Calm   1 mph 95 % 0 in
09:32 42.1 °F 40.5 °F 30.4 in Calm   1 mph 94 % 0 in
09:37 42.3 °F 41 °F 30.4 in Calm   1 mph 95 % 0 in
09:42 43 °F 41.7 °F 30.4 in Calm   1 mph 95 % 0 in
09:47 43.9 °F 42.8 °F 30.4 in Calm     96 % 0 in
09:52 44.1 °F 42.8 °F 30.4 in SSE 1 mph 1 mph 95 % 0 in
09:57 44.1 °F 42.4 °F 30.4 in SE 1 mph 2 mph 94 % 0 in
10:02 44.4 °F 42.8 °F 30.4 in SSE 1 mph 3 mph 94 % 0 in
10:07 44.8 °F 43.2 °F 30.4 in South 2 mph 3 mph 94 % 0 in
10:12 45 °F 43.3 °F 30.4 in Calm   3 mph 94 % 0 in
10:17 45.7 °F 44.1 °F 30.4 in Calm   3 mph 94 % 0 in
10:22 46.2 °F 44.6 °F 30.4 in Calm   3 mph 94 % 0 in
10:27 47.1 °F 45.5 °F 30.4 in SE 1 mph 3 mph 94 % 0 in
10:32 48 °F 46 °F 30.4 in WSW 1 mph 2 mph 93 % 0 in
10:42 48.7 °F 46.2 °F 30.4 in SW 2 mph 4 mph 91 % 0 in
10:52 49.6 °F 46.8 °F 30.4 in ESE 3 mph 4 mph 90 % 0 in
10:57 49.8 °F 46.8 °F 30.4 in SW 2 mph 4 mph 89 % 0 in
11:02 50.4 °F 47.5 °F 30.4 in South 2 mph 4 mph 90 % 0 in
11:07 51.1 °F 47.7 °F 30.4 in SSW 3 mph 4 mph 88 % 0 in
11:12 51.6 °F 47.5 °F 30.4 in South 4 mph 6 mph 86 % 0 in
11:17 52 °F 47.8 °F 30.4 in SSW 2 mph 8 mph 86 % 0 in
11:22 52.9 °F 47.8 °F 30.3 in SW 5 mph 8 mph 83 % 0 in
11:32 53.2 °F 46.9 °F 30.3 in SW 6 mph 9 mph 79 % 0 in
11:42 54.1 °F 46.8 °F 30.3 in SW 6 mph 8 mph 76 % 0 in
11:52 54.3 °F 46.6 °F 30.3 in South 3 mph 9 mph 75 % 0 in
11:57 54.9 °F 47.1 °F 30.3 in SSW 3 mph 9 mph 75 % 0 in
12:02 55.2 °F 47.1 °F 30.3 in SSW 3 mph 9 mph 74 % 0 in
12:07 55 °F 46.6 °F 30.3 in SW 2 mph 9 mph 73 % 0 in
12:12 55.2 °F 45.1 °F 30.3 in SW 10 mph 11 mph 69 % 0 in
12:22 55.6 °F 46 °F 30.3 in SW 3 mph 10 mph 70 % 0 in
12:32 55.9 °F 45.9 °F 30.3 in SW 6 mph 10 mph 69 % 0 in
12:42 56.1 °F 45.3 °F 30.3 in WSW 5 mph 11 mph 67 % 0 in
12:47 56.1 °F 45.3 °F 30.3 in SW 8 mph 11 mph 67 % 0 in
12:52 56.3 °F 46.2 °F 30.3 in SW 4 mph 11 mph 69 % 0 in
12:57 56.3 °F 45.5 °F 30.3 in SW 7 mph 11 mph 67 % 0 in
13:02 56.5 °F 45.7 °F 30.3 in WSW 9 mph 11 mph 67 % 0 in
13:07 56.7 °F 46.2 °F 30.3 in SW 4 mph 11 mph 68 % 0 in
13:12 57 °F 46.6 °F 30.3 in WSW 8 mph 11 mph 68 % 0 in
13:17 56.8 °F 45.1 °F 30.3 in WSW 2 mph 11 mph 65 % 0 in
13:22 57 °F 45.3 °F 30.3 in WNW 4 mph 10 mph 65 % 0 in
13:32 57.4 °F 45 °F 30.3 in SW 5 mph 9 mph 63 % 0 in
13:37 57.4 °F 45 °F 30.3 in West 3 mph 9 mph 63 % 0 in
13:42 57.4 °F 45.7 °F 30.3 in WSW 3 mph 8 mph 65 % 0 in
13:47 57.4 °F 45 °F 30.3 in SSW 2 mph 12 mph 63 % 0 in
13:52 57.4 °F 45 °F 30.3 in West 4 mph 12 mph 63 % 0 in
13:57 57.4 °F 45 °F 30.3 in West 7 mph 12 mph 63 % 0 in
14:07 57.4 °F 45.3 °F 30.3 in WSW 4 mph 11 mph 64 % 0 in
14:12 57.4 °F 45.3 °F 30.3 in WSW 7 mph 11 mph 64 % 0 in
14:17 57.4 °F 45 °F 30.3 in WSW 5 mph 11 mph 63 % 0 in
14:22 57.4 °F 45 °F 30.3 in West 5 mph 11 mph 63 % 0 in
14:27 57.7 °F 44.4 °F 30.3 in WSW 5 mph 11 mph 61 % 0 in
14:32 58.1 °F 45.1 °F 30.3 in SW 6 mph 10 mph 62 % 0 in
14:37 58.3 °F 44.4 °F 30.3 in SW 7 mph 10 mph 60 % 0 in
14:42 58.6 °F 44.8 °F 30.3 in WSW 5 mph 10 mph 60 % 0 in
14:47 58.8 °F 44.6 °F 30.3 in WSW 5 mph 10 mph 59 % 0 in
14:52 59 °F 45.5 °F 30.3 in WSW 5 mph 10 mph 61 % 0 in
14:57 58.6 °F 44.4 °F 30.3 in West 2 mph 13 mph 59 % 0 in
15:02 58.6 °F 44.8 °F 30.3 in SW 8 mph 13 mph 60 % 0 in
15:07 58.8 °F 45 °F 30.3 in WSW 5 mph 13 mph 60 % 0 in
15:12 59.2 °F 44.8 °F 30.3 in West 5 mph 12 mph 59 % 0 in
15:17 59.5 °F 45.1 °F 30.3 in WSW 4 mph 12 mph 59 % 0 in
15:27 59.2 °F 44.8 °F 30.3 in SSW 4 mph 12 mph 59 % 0 in
15:32 59.4 °F 45 °F 30.3 in West 6 mph 12 mph 59 % 0 in
15:37 59.4 °F 45.9 °F 30.3 in West 3 mph 12 mph 61 % 0 in
15:42 59.4 °F 45.9 °F 30.3 in SW 4 mph 11 mph 61 % 0 in
15:47 59.5 °F 46.6 °F 30.3 in WSW 7 mph 10 mph 62 % 0 in
15:52 59.5 °F 46.6 °F 30.3 in SW 9 mph 9 mph 62 % 0 in
15:57 59.4 °F 46.4 °F 30.3 in WSW 5 mph 9 mph 62 % 0 in
16:02 59.4 °F 46.4 °F 30.3 in West 3 mph 9 mph 62 % 0 in
16:07 59.7 °F 46.2 °F 30.3 in SW 5 mph 9 mph 61 % 0 in
16:12 59.9 °F 45.5 °F 30.2 in Calm   11 mph 59 % 0 in
16:17 60.3 °F 45.5 °F 30.2 in WSW 8 mph 11 mph 58 % 0 in
16:22 59.9 °F 45.1 °F 30.2 in West 7 mph 12 mph 58 % 0 in
16:27 59.9 °F 45.1 °F 30.2 in WSW 8 mph 12 mph 58 % 0 in
16:37 59.7 °F 45 °F 30.2 in SW 9 mph 11 mph 58 % 0 in
16:42 59.5 °F 44.2 °F 30.2 in West 6 mph 12 mph 57 % 0 in
16:47 59.5 °F 44.8 °F 30.2 in SW 4 mph 12 mph 58 % 0 in
16:52 59.7 °F 45 °F 30.2 in SW 2 mph 12 mph 58 % 0 in
16:57 59.9 °F 44.6 °F 30.2 in SW 9 mph 12 mph 57 % 0 in
17:02 59.7 °F 44.4 °F 30.2 in WSW 10 mph 12 mph 57 % 0 in
17:07 59.5 °F 44.8 °F 30.2 in West 8 mph 12 mph 58 % 0 in
17:12 59.4 °F 45 °F 30.2 in WSW 7 mph 12 mph 59 % 0 in
17:17 59.4 °F 45.9 °F 30.2 in SW 2 mph 11 mph 61 % 0 in
17:22 59.2 °F 44.8 °F 30.2 in WSW 6 mph 11 mph 59 % 0 in
17:27 59.2 °F 45.3 °F 30.2 in WSW 3 mph 10 mph 60 % 0 in
17:32 59.2 °F 44.8 °F 30.2 in WNW 4 mph 8 mph 59 % 0 in
17:37 59 °F 44.2 °F 30.2 in West 5 mph 10 mph 58 % 0 in
17:42 59.2 °F 44.8 °F 30.2 in WSW 3 mph 10 mph 59 % 0 in
17:47 59.4 °F 45.5 °F 30.2 in West 3 mph 10 mph 60 % 0 in
17:52 59.2 °F 45.3 °F 30.2 in West 3 mph 8 mph 60 % 0 in
17:57 59 °F 45.1 °F 30.2 in WSW 7 mph 8 mph 60 % 0 in
18:02 58.8 °F 45.3 °F 30.2 in West 3 mph 9 mph 61 % 0 in
18:07 58.8 °F 45.3 °F 30.2 in SW 2 mph 9 mph 61 % 0 in
18:12 58.8 °F 45.3 °F 30.2 in WSW 4 mph 9 mph 61 % 0 in
18:17 58.5 °F 45.1 °F 30.2 in WSW 2 mph 8 mph 61 % 0 in
18:22 58.5 °F 45.5 °F 30.2 in West 5 mph 8 mph 62 % 0 in
18:32 58.3 °F 45.3 °F 30.2 in WSW 3 mph 9 mph 62 % 0 in
18:42 58.3 °F 45.3 °F 30.2 in SW 4 mph 7 mph 62 % 0 in
18:47 58.3 °F 45.3 °F 30.2 in SW 2 mph 6 mph 62 % 0 in
18:52 58.1 °F 45.5 °F 30.2 in West 3 mph 6 mph 63 % 0 in
18:57 57.7 °F 45.7 °F 30.2 in West 2 mph 6 mph 64 % 0 in
19:02 57.4 °F 45.7 °F 30.2 in SW 2 mph 6 mph 65 % 0 in
19:07 57.2 °F 45.5 °F 30.2 in West 2 mph 6 mph 65 % 0 in
19:12 56.8 °F 45.1 °F 30.2 in West 2 mph 5 mph 65 % 0 in
19:17 56.7 °F 45.5 °F 30.2 in SW 2 mph 5 mph 66 % 0 in
19:22 56.5 °F 45.3 °F 30.2 in West 3 mph 5 mph 66 % 0 in
19:27 56.5 °F 45.3 °F 30.2 in WSW 3 mph 6 mph 66 % 0 in
19:32 56.3 °F 45.5 °F 30.2 in SW 3 mph 6 mph 67 % 0 in
19:37 56.1 °F 45.3 °F 30.2 in West 3 mph 6 mph 67 % 0 in
19:42 56.1 °F 45.3 °F 30.2 in WSW 4 mph 5 mph 67 % 0 in
19:52 56.1 °F 45.3 °F 30.2 in SW 1 mph 5 mph 67 % 0 in
19:57 55.8 °F 45.3 °F 30.2 in Calm   5 mph 68 % 0 in
20:02 55.4 °F 45.3 °F 30.2 in Calm   4 mph 69 % 0 in
20:07 55.2 °F 45.7 °F 30.2 in Calm   3 mph 70 % 0 in
20:17 55.2 °F 45.7 °F 30.2 in Calm   2 mph 70 % 0 in
20:22 55 °F 45.9 °F 30.2 in SW 1 mph 2 mph 71 % 0 in
20:27 54.9 °F 45.7 °F 30.2 in Calm   4 mph 71 % 0 in
20:32 54.7 °F 45.5 °F 30.2 in WSW 1 mph 4 mph 71 % 0 in
20:37 54.7 °F 45.5 °F 30.2 in Calm   4 mph 71 % 0 in
20:42 54.3 °F 45.5 °F 30.2 in Calm   3 mph 72 % 0 in
20:47 54 °F 45.5 °F 30.2 in Calm   3 mph 73 % 0 in
20:52 53.8 °F 45.7 °F 30.2 in Calm   2 mph 74 % 0 in
20:57 53.2 °F 45.9 °F 30.2 in Calm   1 mph 76 % 0 in
21:02 52.9 °F 45.9 °F 30.2 in Calm     77 % 0 in
21:07 52.9 °F 45.5 °F 30.2 in Calm   1 mph 76 % 0 in
21:12 53.1 °F 45.7 °F 30.2 in Calm   1 mph 76 % 0 in
21:17 53.1 °F 45.7 °F 30.2 in Calm   1 mph 76 % 0 in
21:22 53.1 °F 45.7 °F 30.2 in Calm   1 mph 76 % 0 in
21:27 53.1 °F 45.7 °F 30.2 in ESE 1 mph 1 mph 76 % 0 in
21:32 52.9 °F 45.5 °F 30.2 in SSE 1 mph 1 mph 76 % 0 in
21:37 52.9 °F 45.5 °F 30.2 in SE 1 mph 1 mph 76 % 0 in
21:42 52.9 °F 45.5 °F 30.2 in SSE 1 mph 2 mph 76 % 0 in
21:57 53.4 °F 45.3 °F 30.2 in SW 2 mph 6 mph 74 % 0 in
22:02 53.8 °F 45.7 °F 30.2 in WSW 6 mph 6 mph 74 % 0 in
22:07 54 °F 45.5 °F 30.2 in WSW 4 mph 7 mph 73 % 0 in
22:12 54 °F 45.5 °F 30.2 in SW 4 mph 8 mph 73 % 0 in
22:17 54 °F 45.5 °F 30.2 in WSW 4 mph 8 mph 73 % 0 in
22:22 54 °F 45.5 °F 30.2 in West 1 mph 8 mph 73 % 0 in
22:32 54.1 °F 45.7 °F 30.2 in WSW 3 mph 8 mph 73 % 0 in
22:37 54.3 °F 45.9 °F 30.2 in WSW 3 mph 7 mph 73 % 0 in
22:42 54.3 °F 45.9 °F 30.2 in WSW 4 mph 8 mph 73 % 0 in
22:47 54.3 °F 45.9 °F 30.2 in West 2 mph 9 mph 73 % 0 in
22:52 54.3 °F 45.9 °F 30.2 in SW 2 mph 9 mph 73 % 0 in
22:57 54.5 °F 45.7 °F 30.2 in WSW 2 mph 6 mph 72 % 0 in
23:02 54.7 °F 45.9 °F 30.2 in WSW 5 mph 7 mph 72 % 0 in
23:07 54.5 °F 45.7 °F 30.2 in SW 3 mph 7 mph 72 % 0 in
23:12 54.3 °F 45.9 °F 30.2 in WSW 3 mph 7 mph 73 % 0 in
23:17 54.1 °F 45.7 °F 30.2 in SW 2 mph 7 mph 73 % 0 in
23:22 54 °F 45.9 °F 30.2 in WSW 2 mph 7 mph 74 % 0 in
23:27 54 °F 45.9 °F 30.2 in West 1 mph 5 mph 74 % 0 in
23:32 54 °F 45.9 °F 30.2 in WSW 3 mph 6 mph 74 % 0 in
23:37 54 °F 45.9 °F 30.2 in SW 5 mph 9 mph 74 % 0 in
23:42 54 °F 45.9 °F 30.2 in West 3 mph 9 mph 74 % 0 in
23:47 54 °F 46.2 °F 30.2 in WNW 5 mph 9 mph 75 % 0 in
23:52 53.4 °F 46.4 °F 30.2 in WNW 1 mph 7 mph 77 % 0.02 in
23:57 53.1 °F 46.8 °F 30.2 in Calm   7 mph 79 % 0.02 in
Meteo18
Compliments of Weather Underground - 4 mb

Script developed by  Jim McMurry - jmcmurry@mwt.net Adapted for the template by  Wim van der Kuil - Leuven-Template.eu

You find our weather info also at:

European Weather Network

Weather Underground

Equipment we use:

Weather-station
Davis Vue

Weather-program
Meteohub

Weather-server
Raspberry PI 2 B+

Provider
1 and 1

Davis Vue

Meteohub

Raspberry PI 2 B+

1 and 1